sensor_id;sensor_type;location;lat;lon;timestamp;pressure;altitude;pressure_sealevel;temperature
20730;BMP280;10526;50.850;12.928;2023-06-14T00:02:33;97865.41;;;10.85
20730;BMP280;10526;50.850;12.928;2023-06-14T00:06:56;97867.72;;;10.83
20730;BMP280;10526;50.850;12.928;2023-06-14T00:11:18;97873.81;;;10.83
20730;BMP280;10526;50.850;12.928;2023-06-14T00:15:40;97867.81;;;10.76
20730;BMP280;10526;50.850;12.928;2023-06-14T00:20:04;97871.75;;;10.64
20730;BMP280;10526;50.850;12.928;2023-06-14T00:24:29;97876.38;;;10.56
20730;BMP280;10526;50.850;12.928;2023-06-14T00:28:53;97878.69;;;10.51
20730;BMP280;10526;50.850;12.928;2023-06-14T00:33:16;97879.50;;;10.48
20730;BMP280;10526;50.850;12.928;2023-06-14T00:37:39;97872.66;;;10.43
20730;BMP280;10526;50.850;12.928;2023-06-14T00:42:02;97871.22;;;10.38
20730;BMP280;10526;50.850;12.928;2023-06-14T00:46:24;97880.38;;;10.34
20730;BMP280;10526;50.850;12.928;2023-06-14T00:50:50;97867.88;;;10.24
20730;BMP280;10526;50.850;12.928;2023-06-14T00:55:14;97877.88;;;10.13
20730;BMP280;10526;50.850;12.928;2023-06-14T00:59:47;97868.44;;;10.04
20730;BMP280;10526;50.850;12.928;2023-06-14T01:04:10;97869.31;;;9.91
20730;BMP280;10526;50.850;12.928;2023-06-14T01:09:15;97865.94;;;9.83
20730;BMP280;10526;50.850;12.928;2023-06-14T01:13:43;97861.03;;;9.78
20730;BMP280;10526;50.850;12.928;2023-06-14T01:18:08;97863.34;;;9.72
20730;BMP280;10526;50.850;12.928;2023-06-14T01:22:53;97867.16;;;9.71
20730;BMP280;10526;50.850;12.928;2023-06-14T01:27:15;97870.97;;;9.63
20730;BMP280;10526;50.850;12.928;2023-06-14T01:31:38;97867.59;;;9.59
20730;BMP280;10526;50.850;12.928;2023-06-14T01:36:05;97860.06;;;9.50
20730;BMP280;10526;50.850;12.928;2023-06-14T01:40:29;97856.69;;;9.43
20730;BMP280;10526;50.850;12.928;2023-06-14T01:44:52;97857.81;;;9.38
20730;BMP280;10526;50.850;12.928;2023-06-14T01:49:16;97855.63;;;9.22
20730;BMP280;10526;50.850;12.928;2023-06-14T01:53:38;97859.03;;;9.16
20730;BMP280;10526;50.850;12.928;2023-06-14T01:58:00;97854.53;;;9.06
20730;BMP280;10526;50.850;12.928;2023-06-14T02:02:22;97864.41;;;9.01
20730;BMP280;10526;50.850;12.928;2023-06-14T02:06:45;97867.09;;;8.94
20730;BMP280;10526;50.850;12.928;2023-06-14T02:11:07;97867.84;;;8.98
20730;BMP280;10526;50.850;12.928;2023-06-14T02:15:30;97869.38;;;8.92
20730;BMP280;10526;50.850;12.928;2023-06-14T02:19:56;97872.06;;;8.82
20730;BMP280;10526;50.850;12.928;2023-06-14T02:24:20;97877.34;;;8.78
20730;BMP280;10526;50.850;12.928;2023-06-14T02:28:42;97873.19;;;8.77
20730;BMP280;10526;50.850;12.928;2023-06-14T02:33:04;97874.72;;;8.74
20730;BMP280;10526;50.850;12.928;2023-06-14T02:37:27;97877.34;;;8.78
20730;BMP280;10526;50.850;12.928;2023-06-14T02:41:49;97880.41;;;8.80
20730;BMP280;10526;50.850;12.928;2023-06-14T02:46:12;97887.97;;;8.78
20730;BMP280;10526;50.850;12.928;2023-06-14T02:50:34;97887.22;;;8.81
20730;BMP280;10526;50.850;12.928;2023-06-14T02:54:56;97884.56;;;8.81
20730;BMP280;10526;50.850;12.928;2023-06-14T02:59:18;97887.25;;;8.85
20730;BMP280;10526;50.850;12.928;2023-06-14T03:03:41;97894.44;;;8.81
20730;BMP280;10526;50.850;12.928;2023-06-14T03:08:03;97888.00;;;8.82
20730;BMP280;10526;50.850;12.928;2023-06-14T03:12:25;97887.63;;;8.83
20730;BMP280;10526;50.850;12.928;2023-06-14T03:16:48;97891.38;;;8.89
20730;BMP280;10526;50.850;12.928;2023-06-14T03:21:13;97895.16;;;9.02
20730;BMP280;10526;50.850;12.928;2023-06-14T03:25:48;97896.66;;;9.95
20730;BMP280;10526;50.850;12.928;2023-06-14T03:30:11;97906.97;;;11.13
20730;BMP280;10526;50.850;12.928;2023-06-14T03:34:36;97920.75;;;12.43
20730;BMP280;10526;50.850;12.928;2023-06-14T03:39:03;97926.28;;;13.71
20730;BMP280;10526;50.850;12.928;2023-06-14T03:43:26;97918.69;;;14.63
20730;BMP280;10526;50.850;12.928;2023-06-14T03:47:49;97937.91;;;15.29
20730;BMP280;10526;50.850;12.928;2023-06-14T03:52:13;97938.56;;;15.71
20730;BMP280;10526;50.850;12.928;2023-06-14T03:56:38;97941.88;;;15.88
20730;BMP280;10526;50.850;12.928;2023-06-14T04:01:04;97942.38;;;16.87
20730;BMP280;10526;50.850;12.928;2023-06-14T04:05:26;97956.88;;;18.19
20730;BMP280;10526;50.850;12.928;2023-06-14T04:09:50;97959.59;;;19.16
20730;BMP280;10526;50.850;12.928;2023-06-14T04:14:12;97967.41;;;20.19
20730;BMP280;10526;50.850;12.928;2023-06-14T04:18:34;97964.88;;;20.98
20730;BMP280;10526;50.850;12.928;2023-06-14T04:22:57;97976.41;;;21.48
20730;BMP280;10526;50.850;12.928;2023-06-14T04:27:19;97971.41;;;21.61
20730;BMP280;10526;50.850;12.928;2023-06-14T04:31:43;97972.75;;;21.92
20730;BMP280;10526;50.850;12.928;2023-06-14T04:36:12;97971.09;;;22.46
20730;BMP280;10526;50.850;12.928;2023-06-14T04:40:35;97978.50;;;23.46
20730;BMP280;10526;50.850;12.928;2023-06-14T04:45:08;97981.88;;;25.28
20730;BMP280;10526;50.850;12.928;2023-06-14T04:49:32;97980.56;;;26.34
20730;BMP280;10526;50.850;12.928;2023-06-14T04:53:56;97996.81;;;27.05
20730;BMP280;10526;50.850;12.928;2023-06-14T04:58:23;97991.53;;;26.28
20730;BMP280;10526;50.850;12.928;2023-06-14T05:02:46;97997.31;;;24.31
20730;BMP280;10526;50.850;12.928;2023-06-14T05:07:09;97996.16;;;23.73
20730;BMP280;10526;50.850;12.928;2023-06-14T05:11:32;97998.31;;;24.39
20730;BMP280;10526;50.850;12.928;2023-06-14T05:15:54;98000.06;;;24.59
20730;BMP280;10526;50.850;12.928;2023-06-14T05:20:17;97997.31;;;23.55
20730;BMP280;10526;50.850;12.928;2023-06-14T05:24:39;98000.78;;;24.71
20730;BMP280;10526;50.850;12.928;2023-06-14T05:29:01;98010.22;;;24.70
20730;BMP280;10526;50.850;12.928;2023-06-14T05:33:23;98008.63;;;25.36
20730;BMP280;10526;50.850;12.928;2023-06-14T05:37:46;98011.78;;;26.44
20730;BMP280;10526;50.850;12.928;2023-06-14T05:42:09;98024.41;;;28.07
20730;BMP280;10526;50.850;12.928;2023-06-14T05:46:31;98025.31;;;29.39
20730;BMP280;10526;50.850;12.928;2023-06-14T05:50:53;98036.91;;;30.83
20730;BMP280;10526;50.850;12.928;2023-06-14T05:55:17;98035.91;;;30.24
20730;BMP280;10526;50.850;12.928;2023-06-14T05:59:39;98039.34;;;32.04
20730;BMP280;10526;50.850;12.928;2023-06-14T06:04:02;98039.72;;;32.46
20730;BMP280;10526;50.850;12.928;2023-06-14T06:08:24;98051.03;;;31.66
20730;BMP280;10526;50.850;12.928;2023-06-14T06:12:46;98045.78;;;31.99
20730;BMP280;10526;50.850;12.928;2023-06-14T06:17:09;98041.97;;;30.71
20730;BMP280;10526;50.850;12.928;2023-06-14T06:21:31;98036.38;;;30.35
20730;BMP280;10526;50.850;12.928;2023-06-14T06:25:53;98043.03;;;32.07
20730;BMP280;10526;50.850;12.928;2023-06-14T06:30:16;98053.06;;;34.00
20730;BMP280;10526;50.850;12.928;2023-06-14T06:34:38;98051.34;;;35.42
20730;BMP280;10526;50.850;12.928;2023-06-14T06:39:00;98065.41;;;35.90
20730;BMP280;10526;50.850;12.928;2023-06-14T06:43:22;98069.63;;;33.75
20730;BMP280;10526;50.850;12.928;2023-06-14T06:47:44;98057.31;;;30.38
20730;BMP280;10526;50.850;12.928;2023-06-14T06:52:07;98052.75;;;29.86
20730;BMP280;10526;50.850;12.928;2023-06-14T06:56:30;98054.75;;;31.77
20730;BMP280;10526;50.850;12.928;2023-06-14T07:00:53;98064.75;;;32.40
20730;BMP280;10526;50.850;12.928;2023-06-14T07:05:15;98063.94;;;30.43
20730;BMP280;10526;50.850;12.928;2023-06-14T07:09:37;98068.16;;;31.73
20730;BMP280;10526;50.850;12.928;2023-06-14T07:13:59;98072.44;;;30.73
20730;BMP280;10526;50.850;12.928;2023-06-14T07:18:22;98072.94;;;30.92
20730;BMP280;10526;50.850;12.928;2023-06-14T07:22:43;98072.38;;;29.69
20730;BMP280;10526;50.850;12.928;2023-06-14T07:27:06;98084.09;;;29.70
20730;BMP280;10526;50.850;12.928;2023-06-14T07:31:29;98076.34;;;30.57
20730;BMP280;10526;50.850;12.928;2023-06-14T07:35:51;98084.53;;;32.01
20730;BMP280;10526;50.850;12.928;2023-06-14T07:40:14;98093.41;;;32.37
20730;BMP280;10526;50.850;12.928;2023-06-14T07:44:37;98077.97;;;32.34
20730;BMP280;10526;50.850;12.928;2023-06-14T07:48:59;98094.91;;;33.32
20730;BMP280;10526;50.850;12.928;2023-06-14T07:53:21;98088.56;;;33.06
20730;BMP280;10526;50.850;12.928;2023-06-14T07:57:44;98086.13;;;31.22
20730;BMP280;10526;50.850;12.928;2023-06-14T08:02:06;98082.91;;;30.12
20730;BMP280;10526;50.850;12.928;2023-06-14T08:06:28;98082.72;;;29.50
20730;BMP280;10526;50.850;12.928;2023-06-14T08:10:50;98079.88;;;30.93
20730;BMP280;10526;50.850;12.928;2023-06-14T08:15:12;98103.53;;;32.42
20730;BMP280;10526;50.850;12.928;2023-06-14T08:19:35;98097.00;;;31.00
20730;BMP280;10526;50.850;12.928;2023-06-14T08:23:58;98073.88;;;31.90
20730;BMP280;10526;50.850;12.928;2023-06-14T08:28:21;98078.31;;;31.42
20730;BMP280;10526;50.850;12.928;2023-06-14T08:32:43;98080.69;;;32.80
20730;BMP280;10526;50.850;12.928;2023-06-14T08:37:06;98087.72;;;33.29
20730;BMP280;10526;50.850;12.928;2023-06-14T08:41:29;98091.56;;;32.17
20730;BMP280;10526;50.850;12.928;2023-06-14T08:45:58;98085.16;;;32.37
20730;BMP280;10526;50.850;12.928;2023-06-14T08:50:25;98087.34;;;32.16
20730;BMP280;10526;50.850;12.928;2023-06-14T08:54:53;98097.09;;;31.51
20730;BMP280;10526;50.850;12.928;2023-06-14T08:59:15;98096.31;;;32.01
20730;BMP280;10526;50.850;12.928;2023-06-14T09:03:41;98105.84;;;32.99
20730;BMP280;10526;50.850;12.928;2023-06-14T09:08:03;98083.84;;;32.08
20730;BMP280;10526;50.850;12.928;2023-06-14T09:12:27;98101.81;;;32.70
20730;BMP280;10526;50.850;12.928;2023-06-14T09:16:56;98092.28;;;28.14
20730;BMP280;10526;50.850;12.928;2023-06-14T09:21:18;98095.84;;;27.65
20730;BMP280;10526;50.850;12.928;2023-06-14T09:25:45;98092.25;;;27.76
20730;BMP280;10526;50.850;12.928;2023-06-14T09:30:11;98096.22;;;30.08
20730;BMP280;10526;50.850;12.928;2023-06-14T09:34:35;98100.16;;;31.47
20730;BMP280;10526;50.850;12.928;2023-06-14T09:39:02;98105.91;;;32.38
20730;BMP280;10526;50.850;12.928;2023-06-14T09:43:29;98095.28;;;31.17
20730;BMP280;10526;50.850;12.928;2023-06-14T09:47:52;98101.81;;;32.85
20730;BMP280;10526;50.850;12.928;2023-06-14T09:52:27;98108.88;;;31.23
20730;BMP280;10526;50.850;12.928;2023-06-14T09:56:51;98101.84;;;32.17
20730;BMP280;10526;50.850;12.928;2023-06-14T10:01:13;98111.56;;;33.09
20730;BMP280;10526;50.850;12.928;2023-06-14T10:05:37;98114.34;;;32.78
20730;BMP280;10526;50.850;12.928;2023-06-14T10:09:59;98122.66;;;33.41
20730;BMP280;10526;50.850;12.928;2023-06-14T10:14:22;98112.00;;;33.30
20730;BMP280;10526;50.850;12.928;2023-06-14T10:23:41;98107.56;;;32.57
20730;BMP280;10526;50.850;12.928;2023-06-14T10:28:16;98106.00;;;33.56
20730;BMP280;10526;50.850;12.928;2023-06-14T10:33:07;98112.72;;;32.37
20730;BMP280;10526;50.850;12.928;2023-06-14T10:37:29;98106.06;;;29.43
20730;BMP280;10526;50.850;12.928;2023-06-14T10:41:56;98099.91;;;31.81
20730;BMP280;10526;50.850;12.928;2023-06-14T10:46:19;98089.91;;;32.60
20730;BMP280;10526;50.850;12.928;2023-06-14T10:50:47;98098.91;;;32.30
20730;BMP280;10526;50.850;12.928;2023-06-14T10:55:18;98088.59;;;31.13
20730;BMP280;10526;50.850;12.928;2023-06-14T10:59:41;98077.16;;;29.42
20730;BMP280;10526;50.850;12.928;2023-06-14T11:04:08;98083.53;;;27.10
20730;BMP280;10526;50.850;12.928;2023-06-14T11:13:29;98075.59;;;26.00
20730;BMP280;10526;50.850;12.928;2023-06-14T11:17:53;98069.88;;;25.29
20730;BMP280;10526;50.850;12.928;2023-06-14T11:22:16;98067.19;;;25.01
20730;BMP280;10526;50.850;12.928;2023-06-14T11:26:40;98069.88;;;25.23
20730;BMP280;10526;50.850;12.928;2023-06-14T11:31:03;98072.72;;;25.76
20730;BMP280;10526;50.850;12.928;2023-06-14T11:35:26;98074.09;;;25.02
20730;BMP280;10526;50.850;12.928;2023-06-14T11:39:48;98064.97;;;23.84
20730;BMP280;10526;50.850;12.928;2023-06-14T11:44:11;98057.94;;;23.72
20730;BMP280;10526;50.850;12.928;2023-06-14T11:48:42;98063.16;;;23.70
20730;BMP280;10526;50.850;12.928;2023-06-14T11:53:05;98056.13;;;23.15
20730;BMP280;10526;50.850;12.928;2023-06-14T11:57:36;98049.84;;;23.41
20730;BMP280;10526;50.850;12.928;2023-06-14T12:01:58;98049.47;;;23.16
20730;BMP280;10526;50.850;12.928;2023-06-14T12:06:28;98051.06;;;22.45
20730;BMP280;10526;50.850;12.928;2023-06-14T12:10:51;98053.44;;;22.89
20730;BMP280;10526;50.850;12.928;2023-06-14T12:15:13;98047.44;;;22.80
20730;BMP280;10526;50.850;12.928;2023-06-14T12:19:43;98053.31;;;23.36
20730;BMP280;10526;50.850;12.928;2023-06-14T12:24:06;98042.81;;;23.54
20730;BMP280;10526;50.850;12.928;2023-06-14T12:28:31;98049.94;;;22.83
20730;BMP280;10526;50.850;12.928;2023-06-14T12:32:53;98052.31;;;22.50
20730;BMP280;10526;50.850;12.928;2023-06-14T12:37:15;98046.38;;;23.35
20730;BMP280;10526;50.850;12.928;2023-06-14T12:41:37;98053.91;;;23.51
20730;BMP280;10526;50.850;12.928;2023-06-14T12:46:00;98055.31;;;22.52
20730;BMP280;10526;50.850;12.928;2023-06-14T12:50:22;98050.59;;;23.04
20730;BMP280;10526;50.850;12.928;2023-06-14T12:54:47;98057.63;;;22.39
20730;BMP280;10526;50.850;12.928;2023-06-14T12:59:09;98053.38;;;22.32
20730;BMP280;10526;50.850;12.928;2023-06-14T13:03:32;98071.25;;;21.63
20730;BMP280;10526;50.850;12.928;2023-06-14T13:07:56;98069.44;;;21.10
20730;BMP280;10526;50.850;12.928;2023-06-14T13:12:18;98068.03;;;21.15
20730;BMP280;10526;50.850;12.928;2023-06-14T13:16:40;98053.78;;;21.49
20730;BMP280;10526;50.850;12.928;2023-06-14T13:21:02;98046.03;;;22.38
20730;BMP280;10526;50.850;12.928;2023-06-14T13:25:24;98054.84;;;22.53
20730;BMP280;10526;50.850;12.928;2023-06-14T13:29:47;98056.09;;;22.32
20730;BMP280;10526;50.850;12.928;2023-06-14T13:34:09;98050.69;;;22.58
20730;BMP280;10526;50.850;12.928;2023-06-14T13:38:31;98063.81;;;22.39
20730;BMP280;10526;50.850;12.928;2023-06-14T13:42:53;98050.19;;;21.58
20730;BMP280;10526;50.850;12.928;2023-06-14T13:47:15;98058.09;;;21.96
20730;BMP280;10526;50.850;12.928;2023-06-14T13:51:37;98057.94;;;21.65
20730;BMP280;10526;50.850;12.928;2023-06-14T13:55:59;98052.50;;;21.30
20730;BMP280;10526;50.850;12.928;2023-06-14T14:00:21;98041.44;;;21.48
20730;BMP280;10526;50.850;12.928;2023-06-14T14:04:44;98044.94;;;21.19
20730;BMP280;10526;50.850;12.928;2023-06-14T14:09:13;98050.84;;;20.88
20730;BMP280;10526;50.850;12.928;2023-06-14T14:13:35;98048.47;;;21.40
20730;BMP280;10526;50.850;12.928;2023-06-14T14:17:58;98044.69;;;21.67
20730;BMP280;10526;50.850;12.928;2023-06-14T14:22:20;98042.00;;;21.87
20730;BMP280;10526;50.850;12.928;2023-06-14T14:26:42;98045.69;;;21.70
20730;BMP280;10526;50.850;12.928;2023-06-14T14:31:05;98047.69;;;22.30
20730;BMP280;10526;50.850;12.928;2023-06-14T14:35:27;98041.56;;;22.35
20730;BMP280;10526;50.850;12.928;2023-06-14T14:39:52;98045.31;;;21.97
20730;BMP280;10526;50.850;12.928;2023-06-14T14:44:14;98027.88;;;22.24
20730;BMP280;10526;50.850;12.928;2023-06-14T14:48:36;98055.78;;;21.34
20730;BMP280;10526;50.850;12.928;2023-06-14T14:52:58;98054.41;;;20.41
20730;BMP280;10526;50.850;12.928;2023-06-14T14:57:21;98048.41;;;19.89
20730;BMP280;10526;50.850;12.928;2023-06-14T15:01:43;98048.06;;;19.63
20730;BMP280;10526;50.850;12.928;2023-06-14T15:06:05;98043.53;;;20.02
20730;BMP280;10526;50.850;12.928;2023-06-14T15:10:28;98036.97;;;20.42
20730;BMP280;10526;50.850;12.928;2023-06-14T15:14:51;98048.25;;;20.41
20730;BMP280;10526;50.850;12.928;2023-06-14T15:19:18;98049.72;;;20.42
20730;BMP280;10526;50.850;12.928;2023-06-14T15:23:40;98045.78;;;20.52
20730;BMP280;10526;50.850;12.928;2023-06-14T15:28:02;98036.06;;;20.60
20730;BMP280;10526;50.850;12.928;2023-06-14T15:32:28;98044.06;;;20.54
20730;BMP280;10526;50.850;12.928;2023-06-14T15:36:53;98047.53;;;20.55
20730;BMP280;10526;50.850;12.928;2023-06-14T15:41:15;98039.69;;;20.57
20730;BMP280;10526;50.850;12.928;2023-06-14T15:45:46;98039.72;;;20.72
20730;BMP280;10526;50.850;12.928;2023-06-14T15:50:09;98031.69;;;20.92
20730;BMP280;10526;50.850;12.928;2023-06-14T15:54:32;98040.94;;;21.00
20730;BMP280;10526;50.850;12.928;2023-06-14T15:58:55;98028.13;;;21.15
20730;BMP280;10526;50.850;12.928;2023-06-14T16:03:17;98025.69;;;21.32
20730;BMP280;10526;50.850;12.928;2023-06-14T16:07:40;98027.34;;;21.44
20730;BMP280;10526;50.850;12.928;2023-06-14T16:12:02;98025.25;;;21.54
20730;BMP280;10526;50.850;12.928;2023-06-14T16:16:24;98028.25;;;21.56
20730;BMP280;10526;50.850;12.928;2023-06-14T16:20:46;98020.47;;;21.28
20730;BMP280;10526;50.850;12.928;2023-06-14T16:25:09;98022.72;;;21.15
20730;BMP280;10526;50.850;12.928;2023-06-14T16:29:31;98032.06;;;21.29
20730;BMP280;10526;50.850;12.928;2023-06-14T16:33:53;98024.50;;;21.18
20730;BMP280;10526;50.850;12.928;2023-06-14T16:38:18;98021.91;;;21.59
20730;BMP280;10526;50.850;12.928;2023-06-14T16:42:43;98019.75;;;21.83
20730;BMP280;10526;50.850;12.928;2023-06-14T16:47:06;98010.47;;;22.10
20730;BMP280;10526;50.850;12.928;2023-06-14T16:51:30;98024.28;;;22.12
20730;BMP280;10526;50.850;12.928;2023-06-14T16:55:52;98023.66;;;22.23
20730;BMP280;10526;50.850;12.928;2023-06-14T17:00:14;98031.66;;;21.91
20730;BMP280;10526;50.850;12.928;2023-06-14T17:04:37;98036.81;;;21.19
20730;BMP280;10526;50.850;12.928;2023-06-14T17:08:59;98036.25;;;20.56
20730;BMP280;10526;50.850;12.928;2023-06-14T17:13:21;98054.72;;;19.95
20730;BMP280;10526;50.850;12.928;2023-06-14T17:17:43;98053.41;;;19.49
20730;BMP280;10526;50.850;12.928;2023-06-14T17:22:05;98053.19;;;19.19
20730;BMP280;10526;50.850;12.928;2023-06-14T17:26:28;98055.78;;;18.95
20730;BMP280;10526;50.850;12.928;2023-06-14T17:30:50;98052.94;;;18.80
20730;BMP280;10526;50.850;12.928;2023-06-14T17:35:13;98064.66;;;18.68
20730;BMP280;10526;50.850;12.928;2023-06-14T17:39:36;98071.22;;;18.58
20730;BMP280;10526;50.850;12.928;2023-06-14T17:43:58;98059.22;;;18.50
20730;BMP280;10526;50.850;12.928;2023-06-14T17:48:19;98055.63;;;18.53
20730;BMP280;10526;50.850;12.928;2023-06-14T17:52:42;98055.63;;;18.62
20730;BMP280;10526;50.850;12.928;2023-06-14T17:57:04;98060.41;;;18.67
20730;BMP280;10526;50.850;12.928;2023-06-14T18:01:26;98067.63;;;18.70
20730;BMP280;10526;50.850;12.928;2023-06-14T18:05:49;98066.41;;;18.71
20730;BMP280;10526;50.850;12.928;2023-06-14T18:10:11;98064.03;;;18.64
20730;BMP280;10526;50.850;12.928;2023-06-14T18:14:38;98074.25;;;18.60
20730;BMP280;10526;50.850;12.928;2023-06-14T18:19:00;98075.25;;;18.53
20730;BMP280;10526;50.850;12.928;2023-06-14T18:23:22;98073.75;;;18.43
20730;BMP280;10526;50.850;12.928;2023-06-14T18:27:45;98071.50;;;18.33
20730;BMP280;10526;50.850;12.928;2023-06-14T18:32:08;98072.50;;;18.17
20730;BMP280;10526;50.850;12.928;2023-06-14T18:36:30;98075.00;;;18.02
20730;BMP280;10526;50.850;12.928;2023-06-14T18:40:53;98082.13;;;17.87
20730;BMP280;10526;50.850;12.928;2023-06-14T18:45:15;98079.38;;;17.69
20730;BMP280;10526;50.850;12.928;2023-06-14T18:49:39;98084.41;;;17.57
20730;BMP280;10526;50.850;12.928;2023-06-14T18:54:01;98075.03;;;17.40
20730;BMP280;10526;50.850;12.928;2023-06-14T18:58:25;98088.25;;;17.25
20730;BMP280;10526;50.850;12.928;2023-06-14T19:02:47;98081.22;;;17.06
20730;BMP280;10526;50.850;12.928;2023-06-14T19:07:09;98087.97;;;16.89
20730;BMP280;10526;50.850;12.928;2023-06-14T19:11:32;98093.50;;;16.73
20730;BMP280;10526;50.850;12.928;2023-06-14T19:15:53;98092.75;;;16.59
20730;BMP280;10526;50.850;12.928;2023-06-14T19:20:16;98095.06;;;16.48
20730;BMP280;10526;50.850;12.928;2023-06-14T19:24:39;98097.41;;;16.33
20730;BMP280;10526;50.850;12.928;2023-06-14T19:29:01;98110.53;;;16.19
20730;BMP280;10526;50.850;12.928;2023-06-14T19:33:23;98108.72;;;16.03
20730;BMP280;10526;50.850;12.928;2023-06-14T19:37:45;98109.47;;;15.91
20730;BMP280;10526;50.850;12.928;2023-06-14T19:42:07;98114.72;;;15.81
20730;BMP280;10526;50.850;12.928;2023-06-14T19:46:30;98112.22;;;15.74
20730;BMP280;10526;50.850;12.928;2023-06-14T19:50:52;98115.97;;;15.64
20730;BMP280;10526;50.850;12.928;2023-06-14T19:55:14;98112.41;;;15.55
20730;BMP280;10526;50.850;12.928;2023-06-14T19:59:37;98122.25;;;15.45
20730;BMP280;10526;50.850;12.928;2023-06-14T20:03:59;98122.13;;;15.36
20730;BMP280;10526;50.850;12.928;2023-06-14T20:08:22;98123.56;;;15.24
20730;BMP280;10526;50.850;12.928;2023-06-14T20:12:46;98130.06;;;15.10
20730;BMP280;10526;50.850;12.928;2023-06-14T20:17:08;98127.22;;;15.01
20730;BMP280;10526;50.850;12.928;2023-06-14T20:21:30;98127.91;;;14.89
20730;BMP280;10526;50.850;12.928;2023-06-14T20:25:52;98130.56;;;14.73
20730;BMP280;10526;50.850;12.928;2023-06-14T20:30:14;98126.31;;;14.59
20730;BMP280;10526;50.850;12.928;2023-06-14T20:34:37;98122.03;;;14.45
20730;BMP280;10526;50.850;12.928;2023-06-14T20:39:00;98126.88;;;14.34
20730;BMP280;10526;50.850;12.928;2023-06-14T20:43:22;98128.56;;;14.28
20730;BMP280;10526;50.850;12.928;2023-06-14T20:47:44;98129.44;;;14.21
20730;BMP280;10526;50.850;12.928;2023-06-14T20:52:08;98127.34;;;14.13
20730;BMP280;10526;50.850;12.928;2023-06-14T20:56:30;98133.66;;;14.02
20730;BMP280;10526;50.850;12.928;2023-06-14T21:00:52;98125.00;;;13.95
20730;BMP280;10526;50.850;12.928;2023-06-14T21:05:15;98140.03;;;13.89
20730;BMP280;10526;50.850;12.928;2023-06-14T21:09:37;98126.91;;;13.78
20730;BMP280;10526;50.850;12.928;2023-06-14T21:14:27;98132.50;;;13.64
20730;BMP280;10526;50.850;12.928;2023-06-14T21:19:04;98123.16;;;13.52
20730;BMP280;10526;50.850;12.928;2023-06-14T21:23:26;98126.38;;;13.43
20730;BMP280;10526;50.850;12.928;2023-06-14T21:27:48;98128.00;;;13.37
20730;BMP280;10526;50.850;12.928;2023-06-14T21:32:11;98123.53;;;13.31
20730;BMP280;10526;50.850;12.928;2023-06-14T21:36:33;98134.28;;;13.27
20730;BMP280;10526;50.850;12.928;2023-06-14T21:40:56;98120.03;;;13.14
20730;BMP280;10526;50.850;12.928;2023-06-14T21:45:19;98130.59;;;12.98
20730;BMP280;10526;50.850;12.928;2023-06-14T21:49:41;98132.69;;;12.86
20730;BMP280;10526;50.850;12.928;2023-06-14T21:54:04;98139.69;;;12.77
20730;BMP280;10526;50.850;12.928;2023-06-14T21:58:26;98137.09;;;12.70
20730;BMP280;10526;50.850;12.928;2023-06-14T22:02:48;98131.50;;;12.60
20730;BMP280;10526;50.850;12.928;2023-06-14T22:07:11;98126.31;;;12.50
20730;BMP280;10526;50.850;12.928;2023-06-14T22:11:33;98127.22;;;12.40
20730;BMP280;10526;50.850;12.928;2023-06-14T22:15:56;98128.13;;;12.29
20730;BMP280;10526;50.850;12.928;2023-06-14T22:20:18;98133.59;;;12.19
20730;BMP280;10526;50.850;12.928;2023-06-14T22:24:41;98132.13;;;12.14
20730;BMP280;10526;50.850;12.928;2023-06-14T22:29:03;98124.50;;;12.13
20730;BMP280;10526;50.850;12.928;2023-06-14T22:33:28;98129.09;;;12.12
20730;BMP280;10526;50.850;12.928;2023-06-14T22:37:50;98136.09;;;12.02
20730;BMP280;10526;50.850;12.928;2023-06-14T22:42:13;98149.59;;;11.88
20730;BMP280;10526;50.850;12.928;2023-06-14T22:46:40;98148.91;;;11.81
20730;BMP280;10526;50.850;12.928;2023-06-14T22:51:02;98146.31;;;11.73
20730;BMP280;10526;50.850;12.928;2023-06-14T22:55:24;98142.22;;;11.65
20730;BMP280;10526;50.850;12.928;2023-06-14T22:59:51;98139.63;;;11.58
20730;BMP280;10526;50.850;12.928;2023-06-14T23:04:14;98140.09;;;11.49
20730;BMP280;10526;50.850;12.928;2023-06-14T23:08:37;98130.16;;;11.50
20730;BMP280;10526;50.850;12.928;2023-06-14T23:13:04;98138.50;;;11.56
20730;BMP280;10526;50.850;12.928;2023-06-14T23:17:27;98141.03;;;11.66
20730;BMP280;10526;50.850;12.928;2023-06-14T23:21:52;98130.34;;;11.66
20730;BMP280;10526;50.850;12.928;2023-06-14T23:26:16;98126.56;;;11.67
20730;BMP280;10526;50.850;12.928;2023-06-14T23:30:38;98125.41;;;11.68
20730;BMP280;10526;50.850;12.928;2023-06-14T23:35:05;98129.31;;;11.60
20730;BMP280;10526;50.850;12.928;2023-06-14T23:39:29;98126.41;;;11.44
20730;BMP280;10526;50.850;12.928;2023-06-14T23:43:52;98129.25;;;11.26
20730;BMP280;10526;50.850;12.928;2023-06-14T23:48:14;98131.25;;;11.11
20730;BMP280;10526;50.850;12.928;2023-06-14T23:52:36;98116.81;;;11.05
20730;BMP280;10526;50.850;12.928;2023-06-14T23:56:59;98130.56;;;11.04
